Time;durP1;ratioP1;P1;durP2;ratioP2;P2;SDS_P1;SDS_P2;PMS_P1;PMS_P2;Temp;Humidity;BMP_temperature;BMP_pressure;BME280_temperature;BME280_humidity;BME280_pressure;Samples;Min_cycle;Max_cycle;Signal;HPM_P1;HPM_P2
2022/08/22 00:02:31;;;;;;;3.13;2.50;;;17.70;99.90;;;;;;5054558;28;20407;-76
2022/08/22 00:05:29;;;;;;;2.37;2.17;;;17.70;99.90;;;;;;5058465;28;20424;-76
2022/08/22 00:08:15;;;;;;;3.00;2.70;;;17.70;99.90;;;;;;5040699;28;20478;-75
2022/08/22 00:11:02;;;;;;;2.53;2.33;;;17.70;99.90;;;;;;5058753;28;20834;-76
2022/08/22 00:13:30;;;;;;;3.30;2.47;;;17.70;99.90;;;;;;5053472;28;20419;-75
2022/08/22 00:16:16;;;;;;;4.27;2.60;;;17.70;99.90;;;;;;5053198;28;20975;-76
2022/08/22 00:19:07;;;;;;;3.73;2.60;;;17.60;99.90;;;;;;5053029;28;20497;-76
2022/08/22 00:21:47;;;;;;;4.47;1.90;;;17.60;99.90;;;;;;5053212;28;20403;-75
2022/08/22 00:24:32;;;;;;;2.53;1.80;;;17.70;99.90;;;;;;5053236;28;20393;-77
2022/08/22 00:27:04;;;;;;;4.00;2.80;;;17.70;99.90;;;;;;5053178;28;20400;-77
2022/08/22 00:29:40;;;;;;;3.00;2.70;;;17.60;99.90;;;;;;5052896;28;20483;-77
2022/08/22 00:32:17;;;;;;;3.77;2.13;;;17.60;99.90;;;;;;5052970;28;20389;-77
2022/08/22 00:34:48;;;;;;;4.23;2.50;;;17.60;99.90;;;;;;5052998;28;20492;-75
2022/08/22 00:37:39;;;;;;;2.63;2.00;;;17.60;99.90;;;;;;5052398;28;20398;-75
2022/08/22 00:40:08;;;;;;;2.43;2.23;;;17.50;99.90;;;;;;5052545;28;20420;-76
2022/08/22 00:43:12;;;;;;;4.20;2.60;;;17.50;99.90;;;;;;5052548;28;20504;-76
2022/08/22 00:45:37;;;;;;;1.67;1.57;;;17.50;99.90;;;;;;4932993;29;20838;-76
2022/08/22 00:48:41;;;;;;;4.93;2.17;;;17.50;99.90;;;;;;5027109;28;20474;-76
2022/08/22 00:51:23;;;;;;;2.23;2.13;;;17.50;99.90;;;;;;4991956;28;20865;-75
2022/08/22 00:54:31;;;;;;;5.70;2.50;;;17.40;99.90;;;;;;5052755;28;20429;-76
2022/08/22 00:57:15;;;;;;;2.47;2.10;;;17.30;99.90;;;;;;5034235;28;20423;-76
2022/08/22 01:00:11;;;;;;;2.30;2.10;;;17.20;99.90;;;;;;5052372;28;20408;-75
2022/08/22 01:02:58;;;;;;;4.50;2.20;;;17.20;99.90;;;;;;5052430;28;20414;-75
2022/08/22 01:05:27;;;;;;;3.00;2.00;;;17.20;99.90;;;;;;5052043;28;20814;-76
2022/08/22 01:08:34;;;;;;;2.83;2.53;;;17.10;99.90;;;;;;5052080;28;20456;-76
2022/08/22 01:11:02;;;;;;;3.50;2.67;;;17.10;99.90;;;;;;5012064;28;20549;-75
2022/08/22 01:13:57;;;;;;;3.13;2.40;;;17.10;99.90;;;;;;5052087;28;20414;-75
2022/08/22 01:16:40;;;;;;;14.03;4.50;;;17.10;99.90;;;;;;5026421;28;20471;-76
2022/08/22 01:19:24;;;;;;;2.97;2.70;;;17.10;99.90;;;;;;5049277;28;20828;-75
2022/08/22 01:22:05;;;;;;;4.67;2.23;;;17.00;99.90;;;;;;5052588;28;20856;-75
2022/08/22 01:24:36;;;;;;;2.80;2.20;;;17.00;99.90;;;;;;5039155;28;20766;-76
2022/08/22 01:27:49;;;;;;;2.67;2.47;;;17.00;99.90;;;;;;5056526;28;20917;-75
2022/08/22 01:30:33;;;;;;;2.63;2.43;;;17.00;99.90;;;;;;4932464;29;20473;-76
2022/08/22 01:33:48;;;;;;;3.27;2.50;;;16.90;99.90;;;;;;5052010;28;20462;-76
2022/08/22 01:36:41;;;;;;;4.97;2.73;;;16.90;99.90;;;;;;5051293;28;20406;-75
2022/08/22 01:39:42;;;;;;;2.63;2.43;;;17.00;99.90;;;;;;5051894;28;20900;-76
2022/08/22 01:42:32;;;;;;;4.30;2.50;;;16.90;99.90;;;;;;5051774;28;20763;-75
2022/08/22 01:45:12;;;;;;;4.37;2.27;;;16.90;99.90;;;;;;5051228;28;20399;-75
2022/08/22 01:47:51;;;;;;;4.40;3.30;;;16.90;99.90;;;;;;5033691;28;20785;-76
2022/08/22 01:50:38;;;;;;;3.00;2.30;;;16.90;99.90;;;;;;5051525;28;20542;-76
2022/08/22 01:53:27;;;;;;;3.10;2.57;;;16.80;99.90;;;;;;5053972;28;20400;-77
2022/08/22 01:56:13;;;;;;;9.80;3.63;;;16.90;99.90;;;;;;5055316;28;20403;-76
2022/08/22 01:58:54;;;;;;;3.33;3.03;;;16.80;99.90;;;;;;5056279;28;20420;-75
2022/08/22 02:01:51;;;;;;;4.50;2.97;;;16.70;99.90;;;;;;5056050;28;20924;-76
2022/08/22 02:04:51;;;;;;;4.43;2.87;;;16.60;99.90;;;;;;5059946;28;20773;-75
2022/08/22 02:07:29;;;;;;;2.93;2.50;;;16.60;99.90;;;;;;5057864;28;20386;-75
2022/08/22 02:10:19;;;;;;;4.87;2.87;;;16.60;99.90;;;;;;5055568;28;20985;-75
2022/08/22 02:13:11;;;;;;;2.77;2.57;;;16.60;99.90;;;;;;5040976;28;20420;-74
2022/08/22 02:15:40;;;;;;;2.80;2.60;;;16.60;99.90;;;;;;5034360;28;20411;-75
2022/08/22 02:18:05;;;;;;;3.13;2.83;;;16.50;99.90;;;;;;5055680;28;20432;-74
2022/08/22 02:20:52;;;;;;;2.77;2.33;;;16.50;99.90;;;;;;5055563;28;20408;-75
2022/08/22 02:23:38;;;;;;;2.77;2.47;;;16.40;99.90;;;;;;5055385;28;20177;-75
2022/08/22 02:26:18;;;;;;;6.00;3.00;;;16.40;99.90;;;;;;5054899;28;20394;-75
2022/08/22 02:28:59;;;;;;;3.50;3.20;;;16.40;99.90;;;;;;5055325;28;20419;-75
2022/08/22 02:31:43;;;;;;;3.03;2.73;;;16.40;99.90;;;;;;5055395;28;20475;-76
2022/08/22 02:34:27;;;;;;;4.03;3.30;;;16.30;99.90;;;;;;5055394;28;20422;-76
2022/08/22 02:37:03;;;;;;;4.20;3.13;;;16.30;99.90;;;;;;5054908;28;20404;-76
2022/08/22 02:40:07;;;;;;;3.60;3.03;;;16.30;99.90;;;;;;5038460;28;20443;-75
2022/08/22 02:43:11;;;;;;;3.67;3.20;;;16.20;99.90;;;;;;5054970;28;20415;-77
2022/08/22 02:45:57;;;;;;;4.10;3.10;;;16.20;99.90;;;;;;5036905;28;20497;-77
2022/08/22 02:48:43;;;;;;;3.90;2.83;;;16.20;99.90;;;;;;5055018;28;20465;-77
2022/08/22 02:51:34;;;;;;;4.10;3.53;;;16.30;99.90;;;;;;5054720;28;20934;-76
2022/08/22 02:54:32;;;;;;;6.17;3.63;;;16.20;99.90;;;;;;5049147;28;20412;-77
2022/08/22 02:57:13;;;;;;;5.13;3.00;;;16.20;99.90;;;;;;5053794;28;20403;-76
2022/08/22 02:59:57;;;;;;;4.00;3.13;;;16.20;99.90;;;;;;5054809;28;20415;-76
2022/08/22 03:02:57;;;;;;;3.47;3.00;;;16.10;99.90;;;;;;5036771;28;20427;-76
2022/08/22 03:05:28;;;;;;;5.50;3.27;;;16.10;99.90;;;;;;5053376;28;20416;-75
2022/08/22 03:08:08;;;;;;;4.23;3.83;;;16.20;99.90;;;;;;5055527;28;20452;-75
2022/08/22 03:10:40;;;;;;;5.43;4.73;;;16.30;99.90;;;;;;5060922;28;20466;-79
2022/08/22 03:13:46;;;;;;;3.97;3.50;;;16.30;99.90;;;;;;5062069;28;20484;-75
2022/08/22 03:16:20;;;;;;;5.23;3.40;;;16.40;99.90;;;;;;5025368;28;20422;-76
2022/08/22 03:18:57;;;;;;;6.63;3.83;;;16.50;99.90;;;;;;5057581;28;20434;-75
2022/08/22 03:21:41;;;;;;;4.70;3.43;;;16.50;99.90;;;;;;5054494;28;20401;-74
2022/08/22 03:24:37;;;;;;;3.43;3.03;;;16.50;99.90;;;;;;5054210;28;20403;-77
2022/08/22 03:27:22;;;;;;;5.10;3.63;;;16.50;99.90;;;;;;5054126;28;20404;-76
2022/08/22 03:30:16;;;;;;;4.10;3.57;;;16.50;99.90;;;;;;5053901;28;20443;-75
2022/08/22 03:33:11;;;;;;;3.73;3.43;;;16.60;99.90;;;;;;5042199;28;20519;-77
2022/08/22 03:35:45;;;;;;;6.10;3.40;;;16.50;99.90;;;;;;5053377;28;20412;-77
2022/08/22 03:38:32;;;;;;;4.37;3.40;;;16.50;99.90;;;;;;5053793;28;20424;-75
2022/08/22 03:41:26;;;;;;;4.00;3.10;;;16.50;99.90;;;;;;5035615;28;20435;-76
2022/08/22 03:44:10;;;;;;;3.77;3.37;;;16.40;99.90;;;;;;5053571;28;20400;-76
2022/08/22 03:46:54;;;;;;;3.77;3.47;;;16.40;99.90;;;;;;5052977;28;20431;-75
2022/08/22 03:49:26;;;;;;;8.80;4.33;;;16.40;99.90;;;;;;5053533;28;20485;-75
2022/08/22 03:53:05;;;;;;;5.77;3.60;;;16.50;99.90;;;;;;5053551;28;20404;-75
2022/08/22 03:55:59;;;;;;;6.40;4.50;;;16.60;99.90;;;;;;5053067;28;20422;-75
2022/08/22 03:58:38;;;;;;;5.00;3.53;;;16.60;99.90;;;;;;5053444;28;20942;-76
2022/08/22 04:01:30;;;;;;;4.53;3.37;;;16.70;99.90;;;;;;5053702;28;20983;-75
2022/08/22 04:04:13;;;;;;;4.00;3.60;;;16.60;99.90;;;;;;5053602;28;20393;-76
2022/08/22 04:06:48;;;;;;;3.37;3.07;;;16.50;99.90;;;;;;5035035;28;20423;-76
2022/08/22 04:09:43;;;;;;;4.97;3.93;;;16.50;99.90;;;;;;5052889;28;20813;-76
2022/08/22 04:12:44;;;;;;;5.27;3.40;;;16.40;99.90;;;;;;5052999;28;20431;-76
2022/08/22 04:15:13;;;;;;;3.70;3.40;;;16.40;99.90;;;;;;5052798;28;20400;-77
2022/08/22 04:17:59;;;;;;;6.50;4.10;;;16.50;99.90;;;;;;5053205;28;20424;-76
2022/08/22 04:20:46;;;;;;;4.07;3.40;;;16.70;99.90;;;;;;5052959;28;20454;-76
2022/08/22 04:23:39;;;;;;;4.57;3.23;;;16.70;99.90;;;;;;5053094;28;20401;-76
2022/08/22 04:26:15;;;;;;;5.80;3.40;;;16.70;99.90;;;;;;5053142;28;20413;-76
2022/08/22 04:28:51;;;;;;;5.90;3.17;;;16.60;99.90;;;;;;5053340;28;20431;-76
2022/08/22 04:31:26;;;;;;;11.07;4.20;;;16.60;99.90;;;;;;5053845;28;20465;-77
2022/08/22 04:34:01;;;;;;;3.93;3.53;;;16.60;99.90;;;;;;5053489;28;20436;-77
2022/08/22 04:36:44;;;;;;;4.87;3.50;;;16.70;99.90;;;;;;5053732;28;20915;-77
2022/08/22 04:39:31;;;;;;;3.73;3.43;;;16.80;99.90;;;;;;5052946;28;20793;-77
2022/08/22 04:42:03;;;;;;;5.23;4.17;;;16.90;99.90;;;;;;5052730;28;20501;-76
2022/08/22 04:44:40;;;;;;;5.27;4.00;;;16.80;99.90;;;;;;5052509;28;20436;-77
2022/08/22 04:47:17;;;;;;;5.13;3.47;;;16.80;99.90;;;;;;5052616;28;20408;-76
2022/08/22 04:50:15;;;;;;;4.27;3.40;;;16.80;99.90;;;;;;5052623;28;20450;-77
2022/08/22 04:53:22;;;;;;;4.93;4.43;;;16.80;99.90;;;;;;5006811;28;20426;-75
2022/08/22 04:55:53;;;;;;;3.50;3.20;;;16.90;99.90;;;;;;5052930;28;20894;-74
2022/08/22 04:58:36;;;;;;;4.63;4.10;;;16.90;99.90;;;;;;5056828;28;20994;-74
2022/08/22 05:01:18;;;;;;;5.13;4.03;;;16.90;99.90;;;;;;5054932;28;20435;-75
2022/08/22 05:04:07;;;;;;;5.20;4.33;;;16.90;99.90;;;;;;5052487;28;20395;-76
2022/08/22 05:06:38;;;;;;;6.40;4.10;;;17.00;99.90;;;;;;5052023;28;20426;-75
2022/08/22 05:09:08;;;;;;;6.37;3.53;;;17.00;99.90;;;;;;5062502;22;20517;-70
2022/08/22 05:11:35;;;;;;;9.43;4.27;;;17.00;99.90;;;;;;5030960;28;20461;-71
2022/08/22 05:14:06;;;;;;;6.77;4.73;;;17.10;99.90;;;;;;5031264;28;20404;-70
2022/08/22 05:16:37;;;;;;;4.00;3.60;;;17.10;99.90;;;;;;5031141;28;20393;-71
2022/08/22 05:19:09;;;;;;;4.80;3.90;;;17.10;99.90;;;;;;5031564;28;20534;-71
2022/08/22 05:21:39;;;;;;;6.63;4.30;;;17.20;99.90;;;;;;5031563;28;20630;-70
2022/08/22 05:24:12;;;;;;;4.77;4.00;;;17.20;99.90;;;;;;5031606;28;20483;-70
2022/08/22 05:26:43;;;;;;;6.90;4.03;;;17.30;99.90;;;;;;5028501;28;20502;-70
2022/08/22 05:29:11;;;;;;;6.77;3.93;;;17.30;99.90;;;;;;5030778;28;20441;-70
2022/08/22 05:31:59;;;;;;;4.07;3.50;;;17.30;99.90;;;;;;5031235;28;20460;-70
2022/08/22 05:34:37;;;;;;;9.10;3.50;;;17.30;99.90;;;;;;5031042;28;20932;-71
2022/08/22 05:37:13;;;;;;;4.60;3.20;;;17.40;99.90;;;;;;5030316;28;20427;-70
2022/08/22 05:39:45;;;;;;;7.00;4.30;;;17.50;99.90;;;;;;5031076;28;20437;-71
2022/08/22 05:42:27;;;;;;;5.17;3.80;;;17.60;99.90;;;;;;5031169;28;20451;-70
2022/08/22 05:44:54;;;;;;;7.20;3.53;;;17.70;99.90;;;;;;5030796;28;20916;-71
2022/08/22 05:47:35;;;;;;;5.03;4.00;;;17.80;99.90;;;;;;5031069;28;20439;-70
2022/08/22 05:50:06;;;;;;;4.00;3.60;;;18.00;99.90;;;;;;5030489;28;20606;-69
2022/08/22 05:52:53;;;;;;;4.90;3.37;;;18.20;99.90;;;;;;5041508;28;20413;-70
2022/08/22 05:55:27;;;;;;;4.60;3.67;;;18.20;99.90;;;;;;5050289;28;20447;-70
2022/08/22 05:58:05;;;;;;;4.30;3.90;;;18.40;99.90;;;;;;5050398;28;20398;-70
2022/08/22 06:00:36;;;;;;;3.97;3.53;;;18.50;99.90;;;;;;5047078;28;20876;-71
2022/08/22 06:03:16;;;;;;;4.17;3.00;;;18.70;99.90;;;;;;5030972;28;20411;-70
2022/08/22 06:05:50;;;;;;;7.67;3.33;;;18.90;99.90;;;;;;5030225;28;20958;-71
2022/08/22 06:08:23;;;;;;;5.90;3.70;;;19.20;99.90;;;;;;5030974;28;20411;-71
2022/08/22 06:11:01;;;;;;;2.83;2.60;;;19.80;99.90;;;;;;5030601;28;20469;-71
2022/08/22 06:13:44;;;;;;;2.87;2.67;;;20.20;99.90;;;;;;5048517;28;20410;-71
2022/08/22 06:16:32;;;;;;;6.20;3.13;;;20.20;99.90;;;;;;5028502;28;20404;-71
2022/08/22 06:18:58;;;;;;;4.20;2.90;;;20.30;99.90;;;;;;5030774;28;20530;-69
2022/08/22 06:21:28;;;;;;;3.27;2.90;;;20.50;99.90;;;;;;5030445;28;20414;-70
2022/08/22 06:23:57;;;;;;;6.40;3.43;;;21.00;99.90;;;;;;5030983;28;20421;-69
2022/08/22 06:26:27;;;;;;;4.70;3.13;;;20.70;99.90;;;;;;5030649;28;20467;-71
2022/08/22 06:28:56;;;;;;;5.50;2.87;;;21.60;99.90;;;;;;5030680;28;20469;-70
2022/08/22 06:31:28;;;;;;;5.00;2.77;;;21.60;99.90;;;;;;5030743;28;20799;-71
2022/08/22 06:34:03;;;;;;;4.20;2.63;;;22.00;99.90;;;;;;5030506;28;20869;-70
2022/08/22 06:36:31;;;;;;;2.77;2.57;;;22.00;99.90;;;;;;5034362;28;20412;-71
2022/08/22 06:39:09;;;;;;;2.83;2.50;;;22.60;99.90;;;;;;5032523;28;20427;-70
2022/08/22 06:41:50;;;;;;;6.50;3.47;;;22.10;99.90;;;;;;5034122;28;20409;-71
2022/08/22 06:44:21;;;;;;;2.93;2.63;;;22.10;99.90;;;;;;5033850;28;20834;-70
2022/08/22 06:46:50;;;;;;;5.50;2.70;;;21.90;99.90;;;;;;5033998;28;20410;-71
2022/08/22 06:49:19;;;;;;;3.00;2.70;;;22.20;99.90;;;;;;5034041;28;20486;-69
2022/08/22 06:51:46;;;;;;;2.83;2.23;;;23.00;99.90;;;;;;5033844;28;20452;-71
2022/08/22 06:54:20;;;;;;;3.90;2.40;;;22.90;99.90;;;;;;5033872;28;20401;-70
2022/08/22 06:56:49;;;;;;;3.10;2.57;;;23.40;99.90;;;;;;5033720;28;20432;-75
2022/08/22 06:59:17;;;;;;;4.60;3.20;;;22.40;99.90;;;;;;5033967;28;20422;-70
2022/08/22 07:01:52;;;;;;;3.07;2.77;;;22.60;99.90;;;;;;5033858;28;20398;-70
2022/08/22 07:04:25;;;;;;;4.07;2.30;;;22.90;99.90;;;;;;5033845;28;20482;-70
2022/08/22 07:06:52;;;;;;;5.07;2.83;;;23.00;99.90;;;;;;5033647;28;20397;-72
2022/08/22 07:09:37;;;;;;;3.10;2.50;;;23.10;99.90;;;;;;5033337;28;20437;-70
2022/08/22 07:12:12;;;;;;;2.63;2.20;;;23.20;99.90;;;;;;5033833;28;20892;-71
2022/08/22 07:14:43;;;;;;;3.07;2.20;;;23.20;99.90;;;;;;5033374;28;20981;-72
2022/08/22 07:17:17;;;;;;;2.83;1.80;;;23.40;99.90;;;;;;5033478;28;20416;-71
2022/08/22 07:20:16;;;;;;;2.80;1.93;;;23.40;99.90;;;;;;5033471;28;20485;-72
2022/08/22 07:22:56;;;;;;;1.77;1.60;;;23.70;99.90;;;;;;5015848;28;20438;-71
2022/08/22 07:25:23;;;;;;;1.63;1.53;;;24.20;99.90;;;;;;5033379;28;20454;-71
2022/08/22 07:28:22;;;;;;;2.30;1.90;;;24.20;99.90;;;;;;5033120;28;20929;-71
2022/08/22 07:30:56;;;;;;;3.17;1.83;;;24.40;99.90;;;;;;5013543;28;20488;-72
2022/08/22 07:33:40;;;;;;;2.70;1.70;;;24.50;99.90;;;;;;5013489;28;20419;-70
2022/08/22 07:36:22;;;;;;;2.70;1.60;;;24.10;99.90;;;;;;5041758;28;20504;-71
2022/08/22 07:39:05;;;;;;;1.50;1.40;;;24.00;99.90;;;;;;5041505;28;20444;-71
2022/08/22 07:41:58;;;;;;;5.57;1.40;;;23.90;99.90;;;;;;5025305;28;20401;-69
2022/08/22 07:44:31;;;;;;;2.37;1.30;;;24.00;99.90;;;;;;5032142;28;20556;-70
2022/08/22 07:47:08;;;;;;;1.97;1.23;;;24.00;99.90;;;;;;5032525;28;20425;-71
2022/08/22 07:49:45;;;;;;;2.60;1.90;;;23.90;99.90;;;;;;5031902;28;20472;-71
2022/08/22 07:52:12;;;;;;;5.00;1.37;;;23.80;99.90;;;;;;5032707;28;20475;-71
2022/08/22 07:55:00;;;;;;;2.70;1.40;;;23.90;99.90;;;;;;5032279;28;20432;-71
2022/08/22 07:57:29;;;;;;;3.37;1.50;;;23.70;99.90;;;;;;5032635;28;20432;-68
2022/08/22 07:59:58;;;;;;;2.33;1.67;;;23.60;99.90;;;;;;5032763;28;20419;-70
2022/08/22 08:02:25;;;;;;;2.07;1.47;;;23.30;99.90;;;;;;5033944;28;20413;-72
2022/08/22 08:04:54;;;;;;;2.00;1.70;;;23.70;99.90;;;;;;5051972;28;20432;-70
2022/08/22 08:07:24;;;;;;;1.60;1.27;;;23.90;99.90;;;;;;5052052;28;20479;-70
2022/08/22 08:09:58;;;;;;;2.60;1.20;;;23.90;99.90;;;;;;5033180;28;20888;-69
2022/08/22 08:12:33;;;;;;;1.73;1.40;;;24.00;99.90;;;;;;5032044;28;20406;-69
2022/08/22 08:15:02;;;;;;;2.63;1.50;;;23.80;99.90;;;;;;5032204;28;20433;-69
2022/08/22 08:17:32;;;;;;;6.40;1.50;;;24.00;99.90;;;;;;5032190;28;20409;-72
2022/08/22 08:20:03;;;;;;;2.20;2.07;;;23.90;99.90;;;;;;5031872;28;20433;-70
2022/08/22 08:22:30;;;;;;;1.93;1.73;;;23.60;99.90;;;;;;5032965;28;21027;-71
2022/08/22 08:24:58;;;;;;;2.80;1.70;;;23.60;99.90;;;;;;5031728;28;20404;-71
2022/08/22 08:30:17;;;;;;;2.80;1.30;;;23.90;99.90;;;;;;4998482;28;20457;-70
2022/08/22 08:32:49;;;;;;;2.83;1.63;;;23.90;99.90;;;;;;5052433;28;20471;-74
2022/08/22 08:35:28;;;;;;;2.80;1.30;;;24.10;99.90;;;;;;5042799;28;20413;-73
2022/08/22 08:38:00;;;;;;;4.07;1.80;;;23.90;99.90;;;;;;5031808;28;20548;-71
2022/08/22 08:40:32;;;;;;;2.67;1.53;;;24.20;99.90;;;;;;5031485;28;20427;-71
2022/08/22 08:45:44;;;;;;;2.87;1.13;;;24.90;99.90;;;;;;5031187;28;20452;-71
2022/08/22 08:48:22;;;;;;;1.90;1.30;;;24.60;99.90;;;;;;5030963;28;20409;-71
2022/08/22 08:50:53;;;;;;;3.07;1.40;;;24.90;99.90;;;;;;5031147;28;20448;-71
2022/08/22 08:54:08;;;;;;;1.50;1.00;;;25.20;99.90;;;;;;5031088;28;20538;-71
2022/08/22 08:56:49;;;;;;;3.60;1.47;;;24.90;99.90;;;;;;5031050;28;20384;-70
2022/08/22 08:59:35;;;;;;;2.63;1.30;;;24.80;99.90;;;;;;5030929;28;20445;-70
2022/08/22 09:02:10;;;;;;;3.43;1.60;;;24.60;99.90;;;;;;5031857;28;20456;-71
2022/08/22 09:04:57;;;;;;;3.40;2.07;;;24.90;99.90;;;;;;5031065;28;20396;-70
2022/08/22 09:07:25;;;;;;;2.43;1.30;;;24.70;99.90;;;;;;5036825;28;20396;-70
2022/08/22 09:10:12;;;;;;;2.10;1.10;;;24.60;99.90;;;;;;5050739;28;20471;-70
2022/08/22 09:13:11;;;;;;;3.30;1.50;;;24.40;99.90;;;;;;5034360;28;20416;-70
2022/08/22 09:15:37;;;;;;;2.30;1.30;;;25.10;99.90;;;;;;5020742;28;20408;-71
2022/08/22 09:18:30;;;;;;;4.40;1.40;;;25.20;99.90;;;;;;5030863;28;20472;-70
2022/08/22 09:21:22;;;;;;;2.53;2.30;;;25.10;99.90;;;;;;5030775;28;20197;-71
2022/08/22 09:23:51;;;;;;;2.40;1.47;;;24.90;99.90;;;;;;5030690;28;20812;-70
2022/08/22 09:26:41;;;;;;;2.50;1.27;;;25.00;99.90;;;;;;5030391;28;20413;-70
2022/08/22 09:29:28;;;;;;;2.80;1.30;;;25.30;99.90;;;;;;5030543;28;20468;-71
2022/08/22 09:32:07;;;;;;;3.27;1.50;;;24.90;99.90;;;;;;5030808;28;20410;-71
2022/08/22 09:35:06;;;;;;;1.90;1.30;;;25.20;99.90;;;;;;5030460;28;20451;-70
2022/08/22 09:37:37;;;;;;;1.43;1.33;;;25.10;99.90;;;;;;5030770;28;20410;-71
2022/08/22 09:40:29;;;;;;;1.70;1.60;;;25.10;99.90;;;;;;5030647;28;20571;-70
2022/08/22 09:43:07;;;;;;;2.40;1.23;;;24.70;99.90;;;;;;5030526;28;20421;-70
2022/08/22 09:45:46;;;;;;;1.67;1.10;;;25.00;99.90;;;;;;5030180;28;20434;-70
2022/08/22 09:48:30;;;;;;;2.97;1.50;;;25.00;99.90;;;;;;5030562;28;20407;-69
2022/08/22 09:51:04;;;;;;;2.20;1.77;;;25.20;99.90;;;;;;5030506;28;20464;-70
2022/08/22 09:53:48;;;;;;;3.40;1.30;;;24.90;99.90;;;;;;5037129;28;20505;-70
2022/08/22 09:56:51;;;;;;;3.03;1.70;;;25.20;99.90;;;;;;5039127;28;20815;-71
2022/08/22 09:59:27;;;;;;;1.53;1.30;;;24.80;99.90;;;;;;5030737;28;20420;-71
2022/08/22 10:02:11;;;;;;;3.43;1.40;;;24.70;99.90;;;;;;5030554;28;20409;-70
2022/08/22 10:05:07;;;;;;;3.83;1.63;;;24.80;99.90;;;;;;5030190;28;20604;-70
2022/08/22 10:08:13;;;;;;;2.53;1.20;;;24.70;99.90;;;;;;5031465;28;20478;-70
2022/08/22 10:10:53;;;;;;;1.93;1.73;;;24.90;99.90;;;;;;5046819;28;20468;-71
2022/08/22 10:13:33;;;;;;;2.67;1.40;;;24.90;99.90;;;;;;5019034;28;20505;-71
2022/08/22 10:16:20;;;;;;;2.17;1.30;;;24.60;99.90;;;;;;5034088;28;20422;-69
2022/08/22 10:19:18;;;;;;;2.87;1.40;;;24.50;99.90;;;;;;5034604;28;20781;-70
2022/08/22 10:21:49;;;;;;;5.53;2.00;;;24.60;99.90;;;;;;5034383;28;20915;-71
2022/08/22 10:24:52;;;;;;;2.17;1.20;;;24.60;99.90;;;;;;5047380;28;20414;-70
2022/08/22 10:27:55;;;;;;;1.67;1.40;;;24.80;99.90;;;;;;5053345;28;20427;-70
2022/08/22 10:30:29;;;;;;;1.30;1.20;;;24.80;99.90;;;;;;5050325;28;20466;-70
2022/08/22 10:33:32;;;;;;;5.93;1.40;;;24.90;99.70;;;;;;5053980;28;20405;-70
2022/08/22 10:36:12;;;;;;;3.70;1.20;;;24.70;99.40;;;;;;5011595;28;20774;-69
2022/08/22 10:38:52;;;;;;;4.10;1.23;;;24.60;98.90;;;;;;5048599;28;20412;-71
2022/08/22 10:41:56;;;;;;;2.03;1.40;;;24.60;99.10;;;;;;5036083;28;20412;-70
2022/08/22 10:45:06;;;;;;;1.10;1.00;;;24.60;99.90;;;;;;5033527;28;20406;-70
2022/08/22 10:47:44;;;;;;;1.30;1.10;;;24.40;99.70;;;;;;5033690;28;20418;-70
2022/08/22 10:50:35;;;;;;;2.07;1.10;;;24.70;99.90;;;;;;5032889;28;20534;-70
2022/08/22 10:53:34;;;;;;;1.83;1.20;;;24.70;99.60;;;;;;5033599;28;20433;-71
2022/08/22 10:56:26;;;;;;;1.27;1.17;;;24.60;99.90;;;;;;5033031;28;20750;-70
2022/08/22 10:59:10;;;;;;;1.97;1.00;;;24.50;98.60;;;;;;5033349;28;20433;-71
2022/08/22 11:01:44;;;;;;;2.00;1.17;;;24.60;98.50;;;;;;5033323;28;20455;-70
2022/08/22 11:04:50;;;;;;;1.73;1.03;;;25.00;98.40;;;;;;5033215;28;20406;-71
2022/08/22 11:07:47;;;;;;;2.20;1.33;;;25.20;97.80;;;;;;5041252;28;20698;-70
2022/08/22 11:10:39;;;;;;;1.73;1.37;;;24.70;97.70;;;;;;5051213;23;20859;-77
2022/08/22 11:13:20;;;;;;;3.43;1.47;;;24.60;98.50;;;;;;5034726;28;20778;-77
2022/08/22 11:15:55;;;;;;;2.33;1.40;;;24.70;98.90;;;;;;5034444;28;20486;-76
2022/08/22 11:19:08;;;;;;;3.50;1.63;;;24.90;99.00;;;;;;5034591;28;20400;-76
2022/08/22 11:22:06;;;;;;;3.27;1.23;;;24.80;97.60;;;;;;5015104;28;20406;-76
2022/08/22 11:25:05;;;;;;;2.40;1.17;;;24.90;97.90;;;;;;4989515;28;20457;-77
2022/08/22 11:27:49;;;;;;;1.30;1.20;;;24.90;97.80;;;;;;5024574;28;20462;-77
2022/08/22 11:30:21;;;;;;;2.30;1.60;;;25.10;98.10;;;;;;5014377;28;20469;-76
2022/08/22 11:33:08;;;;;;;2.80;1.40;;;25.20;97.80;;;;;;4997103;28;20781;-76
2022/08/22 11:35:53;;;;;;;2.20;1.37;;;25.40;97.30;;;;;;5013910;28;20411;-77
2022/08/22 11:38:41;;;;;;;2.70;1.33;;;25.30;97.80;;;;;;5014288;28;20434;-76
2022/08/22 11:41:21;;;;;;;3.10;1.23;;;25.40;97.40;;;;;;5014559;28;20440;-77
2022/08/22 11:44:01;;;;;;;3.10;1.40;;;25.20;97.00;;;;;;5014477;28;20417;-77
2022/08/22 11:46:35;;;;;;;1.90;1.53;;;25.20;96.10;;;;;;5013916;28;20443;-77
2022/08/22 11:49:26;;;;;;;2.10;1.13;;;25.20;96.60;;;;;;5023501;28;20417;-77
2022/08/22 11:52:10;;;;;;;2.50;1.40;;;25.30;96.80;;;;;;5012785;28;20851;-77
2022/08/22 11:55:12;;;;;;;2.00;1.30;;;24.90;96.80;;;;;;5013607;28;20431;-77
2022/08/22 11:58:06;;;;;;;1.50;1.40;;;24.70;97.60;;;;;;5014107;28;20414;-77
2022/08/22 12:00:58;;;;;;;1.27;1.17;;;24.90;97.50;;;;;;5017080;28;20504;-77
2022/08/22 12:03:53;;;;;;;3.23;1.13;;;24.90;97.50;;;;;;5004273;28;20479;-76
2022/08/22 12:06:55;;;;;;;2.30;1.03;;;25.00;97.50;;;;;;5014956;28;20552;-76
2022/08/22 12:09:23;;;;;;;3.30;1.30;;;25.00;97.50;;;;;;5032666;28;20447;-77
2022/08/22 12:12:07;;;;;;;1.90;1.20;;;25.10;96.70;;;;;;5033883;28;20469;-77
2022/08/22 12:14:56;;;;;;;2.03;1.27;;;24.80;97.40;;;;;;5032244;28;20416;-77
2022/08/22 12:17:34;;;;;;;2.40;1.20;;;24.70;97.60;;;;;;5030273;28;20452;-77
2022/08/22 12:20:41;;;;;;;1.30;1.20;;;24.60;98.40;;;;;;5033777;28;20451;-77
2022/08/22 12:23:23;;;;;;;3.30;1.40;;;24.50;98.30;;;;;;5021094;28;20511;-76
2022/08/22 12:25:49;;;;;;;3.10;1.30;;;24.40;97.60;;;;;;5013628;28;20448;-77
2022/08/22 12:28:30;;;;;;;2.10;1.47;;;24.30;98.20;;;;;;4996227;28;20511;-77
2022/08/22 12:31:01;;;;;;;1.40;1.30;;;24.20;98.40;;;;;;5013382;28;20576;-77
2022/08/22 12:33:39;;;;;;;1.67;1.57;;;24.30;98.20;;;;;;5013972;28;20404;-75
2022/08/22 12:36:13;;;;;;;2.20;1.33;;;24.00;98.50;;;;;;5013006;28;20416;-78
2022/08/22 12:39:18;;;;;;;1.93;1.30;;;24.00;98.40;;;;;;5013391;28;20511;-77
2022/08/22 12:42:18;;;;;;;2.87;1.90;;;24.60;98.10;;;;;;5013725;28;20421;-77
2022/08/22 12:44:59;;;;;;;3.30;1.50;;;24.40;96.70;;;;;;4994036;28;20412;-78
2022/08/22 12:47:42;;;;;;;2.20;1.20;;;24.40;96.80;;;;;;4998904;28;21158;-77
2022/08/22 12:50:31;;;;;;;2.30;1.23;;;24.50;97.50;;;;;;5013770;28;20990;-77
2022/08/22 12:53:06;;;;;;;3.00;1.83;;;24.50;96.30;;;;;;5012789;28;20434;-76
2022/08/22 12:56:08;;;;;;;2.47;1.40;;;24.60;96.20;;;;;;5017363;28;20415;-76
2022/08/22 12:58:55;;;;;;;3.33;1.63;;;24.50;96.10;;;;;;5013449;28;20782;-77
2022/08/22 13:01:20;;;;;;;2.37;1.37;;;24.40;96.10;;;;;;5011506;28;20804;-76
2022/08/22 13:03:50;;;;;;;1.90;1.37;;;24.50;95.80;;;;;;5013332;28;20411;-76
2022/08/22 13:06:34;;;;;;;1.20;1.10;;;24.60;96.00;;;;;;5013510;28;20253;-77
2022/08/22 13:09:17;;;;;;;1.43;1.10;;;24.50;96.40;;;;;;5014181;28;20427;-77
2022/08/22 13:11:45;;;;;;;2.23;1.30;;;24.70;96.50;;;;;;5013328;28;20508;-77
2022/08/22 13:14:13;;;;;;;1.50;1.40;;;24.70;96.00;;;;;;5013176;28;20443;-76
2022/08/22 13:16:45;;;;;;;1.43;1.33;;;24.70;96.40;;;;;;5018652;28;20408;-76
2022/08/22 13:19:21;;;;;;;2.10;1.37;;;24.90;96.70;;;;;;5003416;28;20414;-77
2022/08/22 13:21:56;;;;;;;2.40;1.43;;;24.50;96.70;;;;;;5014066;28;20408;-78
2022/08/22 13:24:38;;;;;;;1.77;1.20;;;24.80;97.40;;;;;;5012383;28;20414;-78
2022/08/22 13:27:26;;;;;;;1.97;1.40;;;24.90;96.60;;;;;;4998095;28;20762;-78
2022/08/22 13:29:58;;;;;;;3.93;1.73;;;24.90;95.90;;;;;;5012048;28;20461;-78
2022/08/22 13:32:34;;;;;;;1.70;1.50;;;24.80;96.30;;;;;;5012599;28;20490;-77
2022/08/22 13:35:01;;;;;;;1.50;1.20;;;24.80;96.70;;;;;;5011796;28;20446;-77
2022/08/22 13:37:35;;;;;;;1.50;1.30;;;24.90;96.20;;;;;;5012599;28;20499;-76
2022/08/22 13:40:06;;;;;;;5.80;1.63;;;24.90;97.30;;;;;;5012485;28;20559;-78
2022/08/22 13:42:37;;;;;;;2.50;1.53;;;24.60;97.70;;;;;;5012589;28;20406;-78
2022/08/22 13:45:15;;;;;;;1.70;1.50;;;24.60;97.70;;;;;;5012216;28;20414;-76
2022/08/22 13:47:55;;;;;;;1.67;1.27;;;24.60;97.60;;;;;;5015631;28;20395;-76
2022/08/22 13:50:25;;;;;;;2.80;1.73;;;24.40;96.70;;;;;;5019452;28;20451;-77
2022/08/22 13:52:54;;;;;;;3.53;1.40;;;24.40;96.30;;;;;;5017299;28;20917;-76
2022/08/22 13:55:25;;;;;;;1.30;1.20;;;24.30;97.20;;;;;;5014476;28;20829;-77
2022/08/22 13:57:59;;;;;;;3.30;1.73;;;24.20;96.90;;;;;;5011932;28;20522;-77
2022/08/22 14:00:53;;;;;;;2.50;2.13;;;24.30;96.60;;;;;;4994494;28;20439;-77
2022/08/22 14:03:23;;;;;;;4.00;1.90;;;24.50;96.80;;;;;;5011638;28;20820;-77
2022/08/22 14:05:55;;;;;;;2.83;2.00;;;24.40;97.20;;;;;;5011733;28;20917;-77
2022/08/22 14:08:28;;;;;;;4.27;1.27;;;24.10;97.60;;;;;;5011975;28;20417;-76
2022/08/22 14:11:01;;;;;;;5.30;1.57;;;24.10;98.10;;;;;;5012133;28;20498;-77